createdAt,value
2022-09-20T00:00:20.906Z,97.98
2022-09-20T00:05:22.914Z,98.23
2022-09-20T00:10:24.711Z,98.21
2022-09-20T00:15:28.151Z,98.04
2022-09-20T00:20:31.093Z,98.29
2022-09-20T00:25:32.780Z,98.48
2022-09-20T00:30:36.287Z,98.30
2022-09-20T00:35:38.023Z,98.69
2022-09-20T00:40:40.881Z,98.81
2022-09-20T00:45:47.519Z,99.38
2022-09-20T00:50:54.732Z,99.09
2022-09-20T00:56:01.526Z,99.37
2022-09-20T01:01:06.360Z,99.32
2022-09-20T01:06:12.109Z,99.39
2022-09-20T01:11:14.215Z,99.25
2022-09-20T01:16:19.477Z,99.61
2022-09-20T01:21:21.846Z,99.03
2022-09-20T01:26:38.223Z,99.00
2022-09-20T01:31:49.905Z,99.24
2022-09-20T01:36:58.106Z,98.91
2022-09-20T01:42:05.508Z,98.46
2022-09-20T01:47:26.156Z,98.75
2022-09-20T01:53:06.874Z,98.62
2022-09-20T01:58:50.507Z,98.45
2022-09-20T02:04:17.519Z,98.82
2022-09-20T02:10:03.856Z,98.19
2022-09-20T02:15:17.613Z,97.90
2022-09-20T02:20:33.079Z,97.71
2022-09-20T02:26:00.038Z,97.35
2022-09-20T02:31:16.021Z,96.91
2022-09-20T02:36:37.519Z,97.55
2022-09-20T02:42:06.087Z,97.17
2022-09-20T02:47:17.655Z,97.04
2022-09-20T02:52:29.412Z,97.53
2022-09-20T02:57:51.213Z,97.55
2022-09-20T03:03:07.270Z,97.70
2022-09-20T03:08:29.007Z,97.99
2022-09-20T03:13:49.007Z,98.09
2022-09-20T03:19:02.654Z,97.87
2022-09-20T03:24:18.661Z,98.18
2022-09-20T03:29:33.309Z,98.30
2022-09-20T03:34:45.408Z,98.40
2022-09-20T03:40:19.737Z,98.04
2022-09-20T03:45:36.914Z,97.56
2022-09-20T03:50:51.460Z,97.58
2022-09-20T03:56:39.568Z,97.56
2022-09-20T04:02:04.048Z,97.60
2022-09-20T04:07:15.507Z,97.34
2022-09-20T04:12:27.940Z,97.03
2022-09-20T04:17:42.022Z,97.40
2022-09-20T04:22:47.004Z,97.43
2022-09-20T04:27:55.176Z,97.86
2022-09-20T04:33:01.387Z,97.48
2022-09-20T04:38:08.621Z,97.29
2022-09-20T04:43:42.032Z,97.29
2022-09-20T04:49:15.777Z,96.91
2022-09-20T04:54:37.721Z,97.46
2022-09-20T05:00:00.146Z,97.78
2022-09-20T05:05:31.453Z,97.86
2022-09-20T05:11:16.560Z,98.27
2022-09-20T05:16:25.316Z,98.20
2022-09-20T05:21:57.914Z,97.89
2022-09-20T05:27:15.954Z,97.84
2022-09-20T05:32:27.830Z,97.99
2022-09-20T05:37:41.332Z,97.76
2022-09-20T05:42:52.466Z,97.45
2022-09-20T05:48:05.396Z,96.26
2022-09-20T05:53:31.923Z,95.75
2022-09-20T05:58:47.647Z,95.11
2022-09-20T06:04:00.605Z,93.53
2022-09-20T06:09:20.873Z,93.23
2022-09-20T06:14:37.951Z,92.45
2022-09-20T06:19:45.697Z,93.40
2022-09-20T06:24:54.468Z,91.23
2022-09-20T06:30:00.527Z,91.51
2022-09-20T06:35:05.085Z,90.92
2022-09-20T06:40:16.518Z,89.46
2022-09-20T06:45:18.208Z,89.88
2022-09-20T06:50:21.608Z,90.62
2022-09-20T06:55:30.870Z,88.15
2022-09-20T07:00:33.169Z,88.86
2022-09-20T07:05:36.285Z,90.45
2022-09-20T07:10:38.773Z,90.48
2022-09-20T07:15:40.446Z,90.43
2022-09-20T07:20:44.036Z,90.90
2022-09-20T07:25:46.351Z,90.33
2022-09-20T07:30:48.450Z,87.67
2022-09-20T07:35:52.746Z,83.59
2022-09-20T07:40:56.106Z,82.10
2022-09-20T07:45:58.521Z,82.26
2022-09-20T07:51:08.456Z,81.50
2022-09-20T07:56:12.545Z,81.52
2022-09-20T08:01:14.608Z,80.14
2022-09-20T08:06:17.797Z,81.91
2022-09-20T08:11:22.075Z,79.03
2022-09-20T08:16:24.409Z,81.16
2022-09-20T08:21:30.539Z,81.82
2022-09-20T08:26:32.440Z,80.01
2022-09-20T08:31:37.263Z,80.42
2022-09-20T08:36:42.327Z,80.32
2022-09-20T08:41:48.427Z,79.55
2022-09-20T08:46:55.570Z,79.04
2022-09-20T08:52:00.579Z,76.89
2022-09-20T08:57:03.951Z,77.61
2022-09-20T09:02:14.733Z,76.90
2022-09-20T09:07:20.244Z,76.65
2022-09-20T09:12:25.061Z,77.82
2022-09-20T09:17:28.738Z,76.14
2022-09-20T09:22:40.735Z,74.37
2022-09-20T09:27:55.407Z,75.34
2022-09-20T09:33:16.073Z,66.99
2022-09-20T09:38:21.847Z,68.84
2022-09-20T09:43:26.597Z,67.15
2022-09-20T09:48:30.233Z,64.95
2022-09-20T09:53:33.421Z,69.53
2022-09-20T09:58:50.420Z,69.30
2022-09-20T10:03:56.760Z,71.17
2022-09-20T10:09:12.851Z,73.15
2022-09-20T10:14:28.735Z,75.11
2022-09-20T10:19:46.371Z,68.09
2022-09-20T10:24:56.934Z,70.16
2022-09-20T10:30:08.021Z,61.50
2022-09-20T10:35:22.312Z,62.32
2022-09-20T10:40:33.097Z,63.56
2022-09-20T10:46:20.532Z,69.33
2022-09-20T10:51:22.053Z,60.20
2022-09-20T10:56:30.820Z,54.25
2022-09-20T11:01:40.541Z,61.86
2022-09-20T11:06:56.053Z,61.25
2022-09-20T11:12:12.827Z,56.87
2022-09-20T11:17:19.691Z,57.11
2022-09-20T11:22:27.088Z,59.31
2022-09-20T11:27:37.289Z,62.75
2022-09-20T11:32:44.605Z,65.24
2022-09-20T11:37:51.024Z,62.73
2022-09-20T11:42:57.301Z,60.50
2022-09-20T11:48:06.148Z,58.86
2022-09-20T11:53:24.947Z,57.80
2022-09-20T11:58:28.797Z,59.06
2022-09-20T12:03:35.172Z,61.16
2022-09-20T12:08:39.574Z,62.80
2022-09-20T12:13:52.287Z,63.38
2022-09-20T12:19:05.704Z,65.57
2022-09-20T12:24:21.501Z,62.07
2022-09-20T12:29:54.078Z,58.40
2022-09-20T12:34:56.475Z,58.46
2022-09-20T12:39:58.552Z,59.63
2022-09-20T12:45:05.112Z,61.97
2022-09-20T12:50:13.997Z,61.71
2022-09-20T12:55:30.373Z,59.18
2022-09-20T13:00:37.451Z,66.53
2022-09-20T13:06:23.040Z,66.45
2022-09-20T13:11:29.602Z,64.24
2022-09-20T13:16:47.436Z,66.98
2022-09-20T13:21:56.465Z,73.54
2022-09-20T13:27:03.315Z,83.66
2022-09-20T13:32:23.545Z,88.69
2022-09-20T13:37:26.172Z,87.22
2022-09-20T13:42:29.999Z,89.40
2022-09-20T13:47:33.047Z,91.79
2022-09-20T13:52:45.292Z,92.43
2022-09-20T13:57:47.273Z,91.85
2022-09-20T14:02:51.340Z,89.49
2022-09-20T14:07:54.017Z,88.38
2022-09-20T14:12:56.975Z,88.30
2022-09-20T14:18:01.469Z,86.43
2022-09-20T14:23:03.512Z,85.46
2022-09-20T14:28:17.847Z,84.74
2022-09-20T14:33:21.128Z,84.63
2022-09-20T14:38:26.796Z,85.76
2022-09-20T14:43:30.933Z,85.44
2022-09-20T14:48:39.889Z,87.69
2022-09-20T14:53:42.852Z,87.96
2022-09-20T14:59:04.710Z,88.43
2022-09-20T15:04:10.051Z,89.18
2022-09-20T15:09:13.082Z,89.82
2022-09-20T15:14:14.999Z,89.90
2022-09-20T15:19:18.009Z,89.96
2022-09-20T15:24:19.710Z,90.89
2022-09-20T15:29:21.823Z,89.98
2022-09-20T15:34:24.847Z,88.27
2022-09-20T15:39:26.731Z,85.44
2022-09-20T15:44:28.376Z,83.62
2022-09-20T15:49:31.527Z,81.56
2022-09-20T15:54:33.773Z,81.67
2022-09-20T15:59:35.503Z,82.28
2022-09-20T16:04:38.485Z,82.95
2022-09-20T16:09:40.446Z,84.62
2022-09-20T16:14:42.084Z,85.42
2022-09-20T16:19:45.298Z,83.96
2022-09-20T16:24:47.376Z,86.29
2022-09-20T16:29:49.028Z,87.67
2022-09-20T16:34:52.151Z,90.32
2022-09-20T16:39:54.346Z,90.71
2022-09-20T16:44:56.118Z,91.50
2022-09-20T16:49:59.219Z,92.20
2022-09-20T16:55:01.128Z,94.01
2022-09-20T17:00:04.759Z,94.86
2022-09-20T17:05:08.901Z,94.98
2022-09-20T17:10:11.026Z,96.38
2022-09-20T17:15:12.621Z,96.14
2022-09-20T17:20:15.905Z,96.15
2022-09-20T17:25:17.496Z,97.53
2022-09-20T17:30:19.242Z,98.03
2022-09-20T17:35:22.755Z,98.31
2022-09-20T17:40:24.630Z,98.16
2022-09-20T17:45:26.258Z,98.41
2022-09-20T17:50:32.044Z,98.80
2022-09-20T17:55:34.168Z,99.18
2022-09-20T18:00:36.318Z,99.68
2022-09-20T18:05:39.292Z,100.00
2022-09-20T18:10:40.964Z,100.00
2022-09-20T18:15:43.296Z,100.00
2022-09-20T18:20:46.649Z,100.00
2022-09-20T18:25:48.298Z,100.00
2022-09-20T18:30:59.553Z,100.00
2022-09-20T18:36:05.204Z,100.00
2022-09-20T18:41:07.205Z,100.00
2022-09-20T18:46:09.361Z,100.00
2022-09-20T18:51:12.809Z,100.00
2022-09-20T18:56:21.755Z,100.00
2022-09-20T19:01:52.381Z,100.00
2022-09-20T19:07:06.363Z,100.00
2022-09-20T19:12:18.091Z,100.00
2022-09-20T19:17:25.043Z,100.00
2022-09-20T19:22:46.472Z,100.00
2022-09-20T19:27:48.660Z,100.00
2022-09-20T19:32:51.095Z,100.00
2022-09-20T19:38:04.286Z,100.00
2022-09-20T19:43:27.525Z,100.00
2022-09-20T19:48:35.228Z,100.00
2022-09-20T19:53:39.158Z,100.00
2022-09-20T19:58:41.412Z,100.00
2022-09-20T20:03:46.634Z,100.00
2022-09-20T20:08:56.669Z,100.00
2022-09-20T20:14:04.676Z,100.00
2022-09-20T20:19:23.775Z,100.00
2022-09-20T20:24:34.854Z,100.00
2022-09-20T20:29:36.622Z,100.00
2022-09-20T20:34:38.749Z,100.00
2022-09-20T20:39:41.847Z,100.00
2022-09-20T20:44:43.722Z,100.00
2022-09-20T20:49:47.521Z,100.00
2022-09-20T20:54:53.803Z,100.00
2022-09-20T20:59:55.439Z,100.00
2022-09-20T21:04:57.239Z,100.00
2022-09-20T21:10:00.519Z,100.00
2022-09-20T21:15:02.181Z,100.00
2022-09-20T21:20:04.115Z,100.00
2022-09-20T21:25:08.131Z,100.00
2022-09-20T21:30:10.947Z,100.00
2022-09-20T21:35:12.755Z,100.00
2022-09-20T21:40:16.042Z,100.00
2022-09-20T21:45:17.979Z,100.00
2022-09-20T21:50:19.673Z,100.00
2022-09-20T21:55:22.771Z,100.00
2022-09-20T22:00:24.475Z,100.00
2022-09-20T22:05:26.115Z,100.00
2022-09-20T22:10:29.160Z,100.00
2022-09-20T22:15:30.880Z,100.00
2022-09-20T22:20:32.549Z,100.00
2022-09-20T22:25:35.613Z,100.00
2022-09-20T22:30:38.127Z,100.00
2022-09-20T22:35:44.330Z,100.00
2022-09-20T22:40:55.889Z,100.00
2022-09-20T22:46:03.199Z,100.00
2022-09-20T22:51:06.942Z,100.00
2022-09-20T22:56:11.707Z,100.00
2022-09-20T23:01:16.296Z,100.00
2022-09-20T23:06:20.154Z,100.00
2022-09-20T23:11:24.116Z,100.00
2022-09-20T23:16:27.848Z,100.00
2022-09-20T23:21:29.937Z,100.00
2022-09-20T23:26:34.966Z,100.00
2022-09-20T23:31:39.121Z,100.00
2022-09-20T23:36:43.236Z,100.00
2022-09-20T23:41:50.885Z,100.00
2022-09-20T23:46:53.449Z,100.00
2022-09-20T23:51:55.290Z,100.00
2022-09-20T23:56:58.269Z,100.00
